Terminal Aerodrome Forecast
Issued by NWS

Home | Current Version | Previous Version | Graphics & Text | Print | Product List | Glossary On
Versions: 1 2 3 4 5 6 7 8 9 10 11 12 13 14 15 16 17 18 19 20 21 22 23 24
000
FTUS43 KGRB 170200 AAA
TAFCWA
TAF AMD
KCWA 170218Z 1702/1724 32012G19KT P6SM BKN012 OVC021
      TEMPO 1702/1706 SCT012 OVC023
     FM171500 30010G17KT P6SM SCT015 OVC028
     FM171800 30009KT P6SM SCT029 OVC040
      AMD LTD TO CLD VIS AND WIND 1703/1711=

USA.gov is the U.S. government's official web portal to all federal, state and local government web resources and services.